Time;durP1;ratioP1;P1;durP2;ratioP2;P2;SDS_P1;SDS_P2;PMS_P1;PMS_P2;Temp;Humidity;BMP_temperature;BMP_pressure;BME280_temperature;BME280_humidity;BME280_pressure;Samples;Min_cycle;Max_cycle;Signal;HPM_P1;HPM_P2
2023/06/11 00:01:23;;;;;;;;;;;18.00;94.50;;;;;;4593078;19;19919;-25
2023/06/11 00:02:57;;;;;;;;;;;18.00;94.50;;;;;;4592148;19;19926;-24
2023/06/11 00:04:30;;;;;;;;;;;18.00;94.60;;;;;;4592615;19;19911;-24
2023/06/11 00:06:01;;;;;;;;;;;18.00;94.30;;;;;;4593160;19;19932;-23
2023/06/11 00:07:34;;;;;;;;;;;18.00;94.00;;;;;;4593075;19;19921;-24
2023/06/11 00:09:06;;;;;;;;;;;18.00;94.50;;;;;;4592166;19;19992;-25
2023/06/11 00:10:38;;;;;;;;;;;18.00;94.50;;;;;;4590987;19;20275;-29
2023/06/11 00:13:58;;;;;;;;;;;17.90;94.40;;;;;;4591337;19;19919;-27
2023/06/11 00:15:29;;;;;;;;;;;18.00;94.70;;;;;;4592013;19;20338;-24
2023/06/11 00:17:00;;;;;;;;;;;17.90;94.60;;;;;;4592366;19;20267;-27
2023/06/11 00:18:31;;;;;;;;;;;17.90;95.00;;;;;;4592166;19;20292;-25
2023/06/11 00:20:09;;;;;;;;;;;17.90;94.80;;;;;;4591138;19;19923;-29
2023/06/11 00:21:43;;;;;;;;;;;17.90;94.40;;;;;;4591753;19;19919;-29
2023/06/11 00:23:15;;;;;;;;;;;17.90;94.80;;;;;;4592106;19;19919;-24
2023/06/11 00:24:46;;;;;;;;;;;17.90;95.30;;;;;;4591977;19;20346;-28
2023/06/11 00:26:19;;;;;;;;;;;17.90;94.60;;;;;;4592567;19;20361;-23
2023/06/11 00:27:53;;;;;;;;;;;17.90;94.50;;;;;;4591014;19;20631;-24
2023/06/11 00:29:24;;;;;;;;;;;17.90;94.70;;;;;;4591769;19;19918;-26
2023/06/11 00:30:55;;;;;;;;;;;17.90;94.10;;;;;;4591578;19;19959;-25
2023/06/11 00:32:26;;;;;;;;;;;17.90;95.20;;;;;;4592640;19;19918;-26
2023/06/11 00:33:59;;;;;;;;;;;17.90;95.10;;;;;;4591894;19;19926;-25
2023/06/11 00:35:30;;;;;;;;;;;17.80;94.70;;;;;;4591388;19;19926;-27
2023/06/11 00:37:01;;;;;;;;;;;17.80;94.70;;;;;;4591003;19;20254;-25
2023/06/11 00:38:33;;;;;;;;;;;17.80;94.70;;;;;;4592202;19;19922;-24
2023/06/11 00:40:04;;;;;;;;;;;17.80;94.50;;;;;;4590349;19;19923;-28
2023/06/11 00:41:36;;;;;;;;;;;17.80;93.90;;;;;;4591697;19;19922;-23
2023/06/11 00:43:07;;;;;;;;;;;17.80;94.00;;;;;;4591204;19;20252;-25
2023/06/11 00:44:39;;;;;;;;;;;17.80;94.50;;;;;;4592342;19;19970;-24
2023/06/11 00:46:10;;;;;;;;;;;17.80;94.90;;;;;;4591366;19;19945;-24
2023/06/11 00:47:42;;;;;;;;;;;17.80;94.30;;;;;;4591672;19;19974;-26
2023/06/11 00:49:13;;;;;;;;;;;17.80;94.50;;;;;;4591104;19;19936;-24
2023/06/11 00:50:47;;;;;;;;;;;17.80;94.70;;;;;;4592109;19;19919;-24
2023/06/11 00:52:19;;;;;;;;;;;17.80;94.50;;;;;;4592209;19;20315;-26
2023/06/11 00:53:51;;;;;;;;;;;17.80;94.80;;;;;;4590880;19;19914;-28
2023/06/11 00:55:22;;;;;;;;;;;17.80;94.20;;;;;;4591296;19;19923;-25
2023/06/11 00:56:54;;;;;;;;;;;17.70;94.30;;;;;;4591095;19;19918;-25
2023/06/11 00:58:25;;;;;;;;;;;17.70;94.80;;;;;;4591688;19;19974;-27
2023/06/11 00:59:57;;;;;;;;;;;17.70;94.70;;;;;;4591287;19;20241;-25
2023/06/11 01:01:29;;;;;;;;;;;17.70;94.70;;;;;;4591821;19;19923;-28
2023/06/11 01:03:04;;;;;;;;;;;17.70;94.50;;;;;;4591009;19;20229;-25
2023/06/11 01:04:35;;;;;;;;;;;17.70;94.60;;;;;;4590408;19;20254;-25
2023/06/11 01:06:07;;;;;;;;;;;17.70;94.40;;;;;;4590593;19;20257;-28
2023/06/11 01:07:41;;;;;;;;;;;17.70;94.80;;;;;;4589858;19;19923;-24
2023/06/11 01:09:19;;;;;;;;;;;17.70;94.90;;;;;;4589031;19;19915;-24
2023/06/11 01:10:50;;;;;;;;;;;17.70;94.90;;;;;;4591432;19;20271;-25
2023/06/11 01:12:21;;;;;;;;;;;17.70;95.00;;;;;;4592145;19;19915;-24
2023/06/11 01:13:53;;;;;;;;;;;17.70;94.60;;;;;;4592490;19;19915;-25
2023/06/11 01:15:25;;;;;;;;;;;17.70;94.80;;;;;;4591141;19;19921;-24
2023/06/11 01:17:02;;;;;;;;;;;17.70;95.50;;;;;;4591523;19;20332;-25
2023/06/11 01:18:37;;;;;;;;;;;17.70;94.40;;;;;;4591889;19;19925;-25
2023/06/11 01:20:11;;;;;;;;;;;17.70;95.10;;;;;;4590199;19;19923;-26
2023/06/11 01:21:45;;;;;;;;;;;17.60;94.70;;;;;;4589500;19;19915;-26
2023/06/11 01:23:20;;;;;;;;;;;17.60;94.60;;;;;;4589794;19;19919;-26
2023/06/11 01:25:11;;;;;;;;;;;17.60;94.60;;;;;;4590718;19;19938;-24
2023/06/11 01:26:45;;;;;;;;;;;17.60;94.40;;;;;;4591216;19;19922;-26
2023/06/11 01:28:28;;;;;;;;;;;17.60;94.30;;;;;;4591494;19;19923;-26
2023/06/11 01:30:00;;;;;;;;;;;17.60;94.40;;;;;;4590711;19;20332;-25
2023/06/11 01:31:31;;;;;;;;;;;17.60;94.80;;;;;;4589976;19;19918;-28
2023/06/11 01:33:02;;;;;;;;;;;17.60;94.70;;;;;;4590592;19;19915;-25
2023/06/11 01:34:35;;;;;;;;;;;17.60;94.40;;;;;;4590925;19;19915;-23
2023/06/11 01:36:06;;;;;;;;;;;17.60;94.50;;;;;;4589548;19;19970;-24
2023/06/11 01:37:38;;;;;;;;;;;17.50;94.80;;;;;;4590073;19;19956;-25
2023/06/11 01:39:11;;;;;;;;;;;17.60;95.20;;;;;;4590237;19;19967;-24
2023/06/11 01:40:42;;;;;;;;;;;17.60;95.20;;;;;;4590931;19;19952;-24
2023/06/11 01:42:13;;;;;;;;;;;17.60;95.70;;;;;;4590341;19;20329;-26
2023/06/11 01:43:44;;;;;;;;;;;17.50;95.60;;;;;;4590967;19;19923;-30
2023/06/11 01:45:18;;;;;;;;;;;17.50;95.10;;;;;;4591121;19;19978;-24
2023/06/11 01:46:49;;;;;;;;;;;17.50;95.60;;;;;;4590291;19;19922;-25
2023/06/11 01:48:21;;;;;;;;;;;17.50;95.00;;;;;;4589595;19;19982;-24
2023/06/11 01:49:52;;;;;;;;;;;17.50;95.10;;;;;;4590135;19;20270;-26
2023/06/11 01:51:23;;;;;;;;;;;17.50;95.20;;;;;;4589987;19;19929;-25
2023/06/11 01:52:55;;;;;;;;;;;17.50;95.70;;;;;;4589751;19;20295;-24
2023/06/11 01:54:26;;;;;;;;;;;17.50;95.30;;;;;;4590947;19;19918;-25
2023/06/11 01:55:58;;;;;;;;;;;17.50;95.60;;;;;;4589753;19;20343;-26
2023/06/11 01:57:29;;;;;;;;;;;17.50;96.00;;;;;;4591177;19;20347;-26
2023/06/11 01:59:00;;;;;;;;;;;17.50;95.70;;;;;;4590183;19;20335;-24
2023/06/11 02:00:31;;;;;;;;;;;17.50;95.60;;;;;;4590662;19;19936;-26
2023/06/11 02:02:03;;;;;;;;;;;17.40;95.80;;;;;;4589180;19;19911;-24
2023/06/11 02:03:37;;;;;;;;;;;17.40;95.70;;;;;;4590371;19;19915;-25
2023/06/11 02:05:09;;;;;;;;;;;17.40;95.70;;;;;;4590007;19;19919;-23
2023/06/11 02:06:40;;;;;;;;;;;17.40;95.90;;;;;;4589922;19;19919;-23
2023/06/11 02:08:11;;;;;;;;;;;17.40;95.50;;;;;;4590063;19;19974;-28
2023/06/11 02:09:42;;;;;;;;;;;17.40;95.50;;;;;;4590367;19;19919;-26
2023/06/11 02:11:14;;;;;;;;;;;17.40;94.90;;;;;;4589987;19;20021;-23
2023/06/11 02:12:45;;;;;;;;;;;17.40;95.00;;;;;;4590462;19;19919;-24
2023/06/11 02:14:17;;;;;;;;;;;17.40;94.90;;;;;;4588750;19;19911;-25
2023/06/11 02:15:48;;;;;;;;;;;17.40;95.10;;;;;;4589325;19;19937;-25
2023/06/11 02:17:19;;;;;;;;;;;17.40;95.70;;;;;;4588727;19;19919;-25
2023/06/11 02:18:50;;;;;;;;;;;17.40;96.20;;;;;;4590034;19;19998;-25
2023/06/11 02:20:22;;;;;;;;;;;17.30;96.30;;;;;;4593910;19;19926;-29
2023/06/11 02:21:53;;;;;;;;;;;17.30;96.10;;;;;;4594757;19;19923;-25
2023/06/11 02:23:24;;;;;;;;;;;17.30;96.10;;;;;;4594820;19;19907;-25
2023/06/11 02:24:55;;;;;;;;;;;17.30;96.20;;;;;;4594946;19;19923;-26
2023/06/11 02:26:26;;;;;;;;;;;17.30;96.40;;;;;;4594911;19;19929;-26
2023/06/11 02:27:57;;;;;;;;;;;17.30;96.90;;;;;;4594543;19;19974;-26
2023/06/11 02:29:29;;;;;;;;;;;17.30;96.90;;;;;;4595045;19;19945;-27
2023/06/11 02:31:00;;;;;;;;;;;17.30;97.00;;;;;;4591843;19;19914;-25
2023/06/11 02:32:31;;;;;;;;;;;17.30;96.40;;;;;;4593064;19;19915;-26
2023/06/11 02:34:02;;;;;;;;;;;17.20;96.30;;;;;;4593195;19;19955;-28
2023/06/11 02:35:33;;;;;;;;;;;17.20;96.10;;;;;;4594054;19;19918;-25
2023/06/11 02:37:04;;;;;;;;;;;17.20;95.90;;;;;;4593618;19;19918;-26
2023/06/11 02:38:35;;;;;;;;;;;17.20;96.20;;;;;;4594558;19;19941;-28
2023/06/11 02:40:08;;;;;;;;;;;17.30;95.70;;;;;;4594445;19;19984;-25
2023/06/11 02:41:39;;;;;;;;;;;17.30;95.50;;;;;;4595018;19;20331;-24
2023/06/11 02:43:10;;;;;;;;;;;17.20;95.70;;;;;;4594005;19;19915;-27
2023/06/11 02:44:42;;;;;;;;;;;17.30;95.30;;;;;;4594652;19;19996;-26
2023/06/11 02:46:13;;;;;;;;;;;17.30;95.60;;;;;;4594333;19;19911;-24
2023/06/11 02:47:44;;;;;;;;;;;17.30;96.30;;;;;;4594960;19;19929;-25
2023/06/11 02:49:15;;;;;;;;;;;17.30;96.40;;;;;;4593687;19;19919;-24
2023/06/11 02:50:46;;;;;;;;;;;17.30;95.80;;;;;;4594453;19;19922;-25
2023/06/11 02:52:18;;;;;;;;;;;17.30;95.30;;;;;;4593742;19;19925;-24
2023/06/11 02:53:49;;;;;;;;;;;17.30;95.60;;;;;;4594641;19;19915;-28
2023/06/11 02:55:20;;;;;;;;;;;17.30;95.20;;;;;;4592557;19;19921;-26
2023/06/11 02:56:51;;;;;;;;;;;17.20;95.20;;;;;;4592846;19;19919;-26
2023/06/11 02:58:25;;;;;;;;;;;17.20;95.40;;;;;;4593181;19;19970;-24
2023/06/11 02:59:56;;;;;;;;;;;17.30;95.30;;;;;;4594744;19;19934;-27
2023/06/11 03:01:28;;;;;;;;;;;17.30;95.10;;;;;;4593612;19;19978;-29
2023/06/11 03:02:58;;;;;;;;;;;17.30;95.50;;;;;;4593845;19;20329;-26
2023/06/11 03:04:30;;;;;;;;;;;17.30;95.30;;;;;;4593840;19;19911;-25
2023/06/11 03:06:02;;;;;;;;;;;17.30;95.00;;;;;;4593658;19;19911;-27
2023/06/11 03:07:34;;;;;;;;;;;17.30;95.70;;;;;;4592020;19;20332;-26
2023/06/11 03:09:05;;;;;;;;;;;17.30;95.80;;;;;;4593918;19;19961;-24
2023/06/11 03:10:36;;;;;;;;;;;17.30;95.30;;;;;;4594600;19;19919;-26
2023/06/11 03:12:08;;;;;;;;;;;17.30;95.70;;;;;;4592160;19;19922;-23
2023/06/11 03:13:39;;;;;;;;;;;17.30;96.00;;;;;;4593310;19;19923;-27
2023/06/11 03:15:10;;;;;;;;;;;17.30;96.30;;;;;;4593321;19;19922;-25
2023/06/11 03:16:41;;;;;;;;;;;17.30;95.70;;;;;;4592476;19;19919;-25
2023/06/11 03:18:12;;;;;;;;;;;17.30;95.30;;;;;;4593185;19;19919;-27
2023/06/11 03:19:44;;;;;;;;;;;17.30;95.60;;;;;;4593562;19;19934;-29
2023/06/11 03:21:15;;;;;;;;;;;17.30;95.20;;;;;;4593439;19;19915;-24
2023/06/11 03:22:46;;;;;;;;;;;17.30;95.40;;;;;;4593638;19;19922;-25
2023/06/11 03:24:17;;;;;;;;;;;17.30;96.00;;;;;;4593068;19;20316;-24
2023/06/11 03:25:48;;;;;;;;;;;17.30;96.20;;;;;;4593860;19;19918;-23
2023/06/11 03:27:19;;;;;;;;;;;17.30;96.10;;;;;;4593491;19;19918;-24
2023/06/11 03:28:50;;;;;;;;;;;17.30;96.60;;;;;;4593325;19;19919;-27
2023/06/11 03:30:21;;;;;;;;;;;17.30;96.10;;;;;;4593205;19;19915;-23
2023/06/11 03:31:52;;;;;;;;;;;17.30;95.70;;;;;;4591502;19;19999;-29
2023/06/11 03:33:24;;;;;;;;;;;17.30;96.40;;;;;;4593547;19;19914;-25
2023/06/11 03:34:55;;;;;;;;;;;17.30;95.90;;;;;;4593108;19;19978;-23
2023/06/11 03:36:26;;;;;;;;;;;17.30;96.40;;;;;;4591952;19;19915;-25
2023/06/11 03:37:57;;;;;;;;;;;17.30;96.00;;;;;;4592531;19;19996;-23
2023/06/11 03:39:32;;;;;;;;;;;17.30;96.10;;;;;;4592842;19;19922;-25
2023/06/11 03:41:03;;;;;;;;;;;17.30;96.40;;;;;;4593150;19;19922;-27
2023/06/11 03:42:34;;;;;;;;;;;17.30;95.80;;;;;;4591554;19;19942;-23
2023/06/11 03:44:05;;;;;;;;;;;17.30;95.70;;;;;;4593200;19;19939;-24
2023/06/11 03:45:36;;;;;;;;;;;17.30;95.30;;;;;;4592720;19;19942;-26
2023/06/11 03:47:08;;;;;;;;;;;17.30;95.80;;;;;;4593000;19;20240;-28
2023/06/11 03:48:39;;;;;;;;;;;17.30;96.60;;;;;;4591409;19;19923;-27
2023/06/11 03:50:10;;;;;;;;;;;17.30;96.00;;;;;;4592734;19;19919;-25
2023/06/11 03:51:41;;;;;;;;;;;17.30;95.80;;;;;;4592438;19;19945;-27
2023/06/11 03:53:12;;;;;;;;;;;17.40;95.30;;;;;;4593062;19;19911;-25
2023/06/11 03:54:43;;;;;;;;;;;17.40;95.50;;;;;;4592634;19;19921;-25
2023/06/11 03:56:15;;;;;;;;;;;17.40;95.70;;;;;;4591994;19;20238;-24
2023/06/11 03:57:46;;;;;;;;;;;17.40;95.10;;;;;;4592573;19;19915;-27
2023/06/11 03:59:17;;;;;;;;;;;17.40;96.10;;;;;;4592858;19;19928;-24
2023/06/11 04:00:48;;;;;;;;;;;17.40;95.80;;;;;;4593433;19;19970;-26
2023/06/11 04:02:19;;;;;;;;;;;17.40;95.20;;;;;;4590932;19;20340;-27
2023/06/11 04:03:50;;;;;;;;;;;17.40;95.00;;;;;;4592488;19;19915;-26
2023/06/11 04:05:22;;;;;;;;;;;17.40;95.10;;;;;;4592205;19;19946;-26
2023/06/11 04:06:53;;;;;;;;;;;17.40;95.60;;;;;;4592603;19;19919;-23
2023/06/11 04:08:25;;;;;;;;;;;17.40;95.20;;;;;;4592034;19;19970;-24
2023/06/11 04:09:56;;;;;;;;;;;17.40;94.90;;;;;;4592932;19;19982;-25
2023/06/11 04:11:27;;;;;;;;;;;17.40;95.20;;;;;;4592315;19;19915;-24
2023/06/11 04:12:58;;;;;;;;;;;17.40;95.00;;;;;;4593105;19;19919;-27
2023/06/11 04:14:30;;;;;;;;;;;17.40;95.00;;;;;;4592155;19;19978;-25
2023/06/11 04:16:01;;;;;;;;;;;17.50;94.90;;;;;;4591133;19;19915;-26
2023/06/11 04:17:32;;;;;;;;;;;17.40;94.40;;;;;;4591934;19;19953;-26
2023/06/11 04:19:03;;;;;;;;;;;17.40;94.50;;;;;;4592502;19;20337;-26
2023/06/11 04:20:34;;;;;;;;;;;17.50;94.50;;;;;;4591649;19;19919;-22
2023/06/11 04:22:20;;;;;;;;;;;17.50;95.40;;;;;;4592186;19;20329;-24
2023/06/11 04:23:51;;;;;;;;;;;17.50;94.60;;;;;;4592620;19;19915;-25
2023/06/11 04:25:22;;;;;;;;;;;17.50;94.60;;;;;;4592470;19;20284;-26
2023/06/11 04:26:53;;;;;;;;;;;17.50;94.50;;;;;;4592448;19;19919;-27
2023/06/11 04:28:26;;;;;;;;;;;17.50;95.00;;;;;;4592143;19;19918;-25
2023/06/11 04:29:58;;;;;;;;;;;17.50;95.40;;;;;;4592642;19;19911;-27
2023/06/11 04:31:29;;;;;;;;;;;17.50;94.60;;;;;;4591804;19;19974;-26
2023/06/11 04:33:03;;;;;;;;;;;17.50;94.80;;;;;;4590754;19;19922;-23
2023/06/11 04:34:36;;;;;;;;;;;17.50;95.30;;;;;;4591841;19;20330;-24
2023/06/11 04:36:08;;;;;;;;;;;17.50;95.10;;;;;;4591951;19;19925;-26
2023/06/11 04:37:40;;;;;;;;;;;17.50;94.90;;;;;;4591382;19;19930;-26
2023/06/11 04:39:12;;;;;;;;;;;17.60;95.50;;;;;;4593433;19;19911;-28
2023/06/11 04:40:43;;;;;;;;;;;17.60;95.10;;;;;;4592368;19;19923;-25
2023/06/11 04:42:16;;;;;;;;;;;17.60;95.00;;;;;;4592321;19;19928;-26
2023/06/11 04:43:47;;;;;;;;;;;17.70;94.90;;;;;;4592105;19;19915;-25
2023/06/11 04:45:18;;;;;;;;;;;17.70;95.50;;;;;;4592453;19;20256;-28
2023/06/11 04:46:57;;;;;;;;;;;17.70;95.60;;;;;;4591367;19;19929;-26
2023/06/11 04:48:30;;;;;;;;;;;17.70;95.10;;;;;;4592137;19;19915;-30
2023/06/11 04:50:04;;;;;;;;;;;17.70;95.00;;;;;;4592142;19;19911;-25
2023/06/11 04:51:40;;;;;;;;;;;17.70;94.90;;;;;;4592336;19;20344;-26
2023/06/11 04:53:12;;;;;;;;;;;17.70;95.10;;;;;;4592066;19;19922;-24
2023/06/11 04:54:44;;;;;;;;;;;17.70;94.90;;;;;;4592012;19;20332;-27
2023/06/11 04:56:16;;;;;;;;;;;17.70;94.80;;;;;;4591122;19;19986;-25
2023/06/11 04:57:47;;;;;;;;;;;17.80;94.80;;;;;;4592337;19;19922;-25
2023/06/11 04:59:19;;;;;;;;;;;17.80;95.10;;;;;;4592208;19;19940;-27
2023/06/11 05:00:56;;;;;;;;;;;17.80;95.20;;;;;;4592311;19;19919;-24
2023/06/11 05:02:32;;;;;;;;;;;17.70;95.10;;;;;;4592025;19;19934;-28
2023/06/11 05:04:03;;;;;;;;;;;17.80;95.60;;;;;;4591848;19;19918;-23
2023/06/11 05:05:34;;;;;;;;;;;17.80;95.30;;;;;;4591030;19;20002;-28
2023/06/11 05:07:07;;;;;;;;;;;17.80;95.60;;;;;;4590573;19;19926;-26
2023/06/11 05:08:39;;;;;;;;;;;17.80;95.40;;;;;;4591659;19;20243;-28
2023/06/11 05:10:10;;;;;;;;;;;17.80;95.60;;;;;;4592003;19;19919;-26
2023/06/11 05:11:42;;;;;;;;;;;17.80;96.20;;;;;;4590497;19;19919;-24
2023/06/11 05:13:13;;;;;;;;;;;17.80;95.60;;;;;;4591351;19;19915;-24
2023/06/11 05:14:47;;;;;;;;;;;17.80;95.70;;;;;;4591868;19;20320;-27
2023/06/11 05:16:20;;;;;;;;;;;17.80;95.90;;;;;;4591243;19;19915;-26
2023/06/11 05:17:55;;;;;;;;;;;17.80;95.70;;;;;;4592002;19;19917;-28
2023/06/11 05:19:26;;;;;;;;;;;17.90;95.80;;;;;;4590644;19;19923;-26
2023/06/11 05:20:57;;;;;;;;;;;17.80;96.00;;;;;;4591020;19;20256;-24
2023/06/11 05:22:31;;;;;;;;;;;17.90;96.00;;;;;;4591956;19;19971;-25
2023/06/11 05:24:17;;;;;;;;;;;17.90;95.90;;;;;;4591448;19;19919;-26
2023/06/11 05:25:47;;;;;;;;;;;18.00;96.50;;;;;;4588892;19;19939;-24
2023/06/11 05:27:21;;;;;;;;;;;18.60;97.70;;;;;;4591348;19;20320;-27
2023/06/11 05:28:52;;;;;;;;;;;19.10;97.20;;;;;;4586003;19;19940;-25
2023/06/11 05:30:25;;;;;;;;;;;19.60;96.60;;;;;;4587851;19;19926;-28
2023/06/11 05:31:56;;;;;;;;;;;20.00;96.20;;;;;;4591012;19;19985;-28
2023/06/11 05:33:28;;;;;;;;;;;20.40;95.80;;;;;;4591508;19;19927;-27
2023/06/11 05:34:59;;;;;;;;;;;20.70;95.60;;;;;;4591611;19;19978;-24
2023/06/11 05:36:32;;;;;;;;;;;20.90;95.00;;;;;;4590498;19;19923;-26
2023/06/11 05:38:06;;;;;;;;;;;21.10;94.70;;;;;;4589928;19;20350;-25
2023/06/11 05:39:37;;;;;;;;;;;21.30;94.80;;;;;;4590492;19;19922;-31
2023/06/11 05:41:08;;;;;;;;;;;21.50;94.20;;;;;;4590236;19;20614;-23
2023/06/11 05:42:39;;;;;;;;;;;21.60;94.00;;;;;;4590220;19;19986;-25
2023/06/11 05:44:10;;;;;;;;;;;21.70;94.20;;;;;;4589399;19;19922;-26
2023/06/11 05:45:50;;;;;;;;;;;21.90;94.10;;;;;;4590019;19;20622;-28
2023/06/11 05:47:22;;;;;;;;;;;21.90;93.60;;;;;;4589893;19;19921;-25
2023/06/11 05:48:53;;;;;;;;;;;22.00;93.70;;;;;;4590661;19;20266;-25
2023/06/11 05:50:24;;;;;;;;;;;22.10;93.40;;;;;;4590887;19;19951;-27
2023/06/11 05:51:56;;;;;;;;;;;22.20;93.50;;;;;;4591256;19;19919;-26
2023/06/11 05:53:27;;;;;;;;;;;22.20;93.50;;;;;;4591558;19;19919;-26
2023/06/11 05:54:59;;;;;;;;;;;22.30;93.40;;;;;;4592920;19;19923;-25
2023/06/11 05:56:31;;;;;;;;;;;22.30;93.30;;;;;;4593535;19;19919;-28
2023/06/11 05:58:02;;;;;;;;;;;22.30;93.90;;;;;;4594418;19;19923;-27
2023/06/11 05:59:33;;;;;;;;;;;22.40;93.70;;;;;;4594774;19;19918;-26
2023/06/11 06:01:04;;;;;;;;;;;22.40;93.60;;;;;;4596038;19;19945;-26
2023/06/11 06:02:36;;;;;;;;;;;22.50;93.60;;;;;;4595923;19;20354;-25
2023/06/11 06:04:08;;;;;;;;;;;22.50;93.30;;;;;;4595791;19;19928;-30
2023/06/11 06:05:41;;;;;;;;;;;22.50;93.60;;;;;;4593350;19;19926;-25
2023/06/11 06:07:12;;;;;;;;;;;22.50;93.90;;;;;;4593519;19;19922;-26
2023/06/11 06:08:43;;;;;;;;;;;22.50;94.10;;;;;;4594255;19;19919;-26
2023/06/11 06:10:15;;;;;;;;;;;22.50;93.40;;;;;;4594675;19;20914;-28
2023/06/11 06:11:46;;;;;;;;;;;22.50;93.70;;;;;;4594345;19;19928;-31
2023/06/11 06:13:16;;;;;;;;;;;22.60;93.80;;;;;;4596082;19;19915;-28
2023/06/11 06:14:48;;;;;;;;;;;22.50;93.70;;;;;;4594874;19;19974;-24
2023/06/11 06:16:19;;;;;;;;;;;22.60;93.90;;;;;;4594015;19;19911;-25
2023/06/11 06:17:50;;;;;;;;;;;22.60;94.10;;;;;;4594874;19;20336;-28
2023/06/11 06:19:21;;;;;;;;;;;22.60;93.80;;;;;;4595195;19;20342;-28
2023/06/11 06:20:52;;;;;;;;;;;22.60;94.50;;;;;;4594906;19;19914;-25
2023/06/11 06:22:23;;;;;;;;;;;22.60;94.40;;;;;;4595214;19;19911;-27
2023/06/11 06:23:54;;;;;;;;;;;22.60;94.10;;;;;;4593971;19;19925;-27
2023/06/11 06:25:26;;;;;;;;;;;22.60;94.30;;;;;;4593117;19;19921;-25
2023/06/11 06:26:58;;;;;;;;;;;22.60;94.00;;;;;;4595163;19;20243;-26
2023/06/11 06:28:32;;;;;;;;;;;22.60;94.20;;;;;;4594024;19;19919;-25
2023/06/11 06:30:05;;;;;;;;;;;22.60;94.50;;;;;;4595554;19;19926;-24
2023/06/11 06:31:37;;;;;;;;;;;22.70;94.70;;;;;;4594279;19;19919;-27
2023/06/11 06:33:09;;;;;;;;;;;22.70;94.40;;;;;;4594587;19;19934;-24
2023/06/11 06:34:41;;;;;;;;;;;22.70;94.40;;;;;;4595274;19;19970;-26
2023/06/11 06:36:12;;;;;;;;;;;22.70;94.00;;;;;;4592828;19;19929;-25
2023/06/11 06:37:43;;;;;;;;;;;22.70;94.20;;;;;;4593221;19;19946;-27
2023/06/11 06:39:15;;;;;;;;;;;22.80;93.90;;;;;;4594143;19;19919;-27
2023/06/11 06:40:46;;;;;;;;;;;22.90;93.90;;;;;;4592809;19;19925;-25
2023/06/11 06:42:18;;;;;;;;;;;22.90;93.80;;;;;;4592588;19;19918;-25
2023/06/11 06:43:48;;;;;;;;;;;23.00;93.70;;;;;;4592863;19;19922;-24
2023/06/11 06:45:39;;;;;;;;;;;23.10;94.00;;;;;;4595650;19;19911;-25
2023/06/11 06:47:10;;;;;;;;;;;23.20;93.10;;;;;;4593206;19;19922;-26
2023/06/11 06:48:41;;;;;;;;;;;23.30;93.80;;;;;;4594711;19;19919;-30
2023/06/11 06:50:12;;;;;;;;;;;23.30;94.00;;;;;;4593796;19;19938;-25
2023/06/11 06:51:44;;;;;;;;;;;23.40;93.90;;;;;;4593178;19;19915;-27
2023/06/11 06:53:15;;;;;;;;;;;23.50;94.10;;;;;;4593972;19;20275;-25
2023/06/11 06:54:48;;;;;;;;;;;23.50;94.00;;;;;;4592735;19;19930;-26
2023/06/11 06:56:19;;;;;;;;;;;23.50;93.90;;;;;;4589835;19;19926;-27
2023/06/11 06:57:50;;;;;;;;;;;23.50;94.10;;;;;;4591161;19;19962;-25
2023/06/11 06:59:21;;;;;;;;;;;23.50;94.10;;;;;;4594514;19;20179;-25
2023/06/11 07:05:40;;;;;;;;;;;23.70;94.00;;;;;;4594081;19;19911;-26
2023/06/11 07:07:11;;;;;;;;;;;23.80;93.70;;;;;;4591744;19;19925;-27
2023/06/11 07:08:43;;;;;;;;;;;23.90;93.70;;;;;;4592897;19;19960;-26
2023/06/11 07:10:14;;;;;;;;;;;24.00;93.60;;;;;;4592635;19;19923;-26
2023/06/11 07:11:47;;;;;;;;;;;24.10;93.80;;;;;;4592278;19;19923;-26
2023/06/11 07:13:21;;;;;;;;;;;24.20;93.90;;;;;;4592245;19;19918;-28
2023/06/11 07:14:52;;;;;;;;;;;24.20;93.80;;;;;;4592478;19;19922;-28
2023/06/11 07:16:23;;;;;;;;;;;24.30;93.90;;;;;;4594180;19;19986;-26
2023/06/11 07:17:54;;;;;;;;;;;24.40;93.70;;;;;;4594317;19;19911;-27
2023/06/11 07:19:25;;;;;;;;;;;24.40;93.60;;;;;;4594030;19;19935;-25
2023/06/11 07:20:56;;;;;;;;;;;24.40;94.00;;;;;;4592062;19;19922;-25
2023/06/11 07:22:27;;;;;;;;;;;24.40;93.90;;;;;;4592575;19;19911;-28
2023/06/11 07:23:58;;;;;;;;;;;24.50;93.80;;;;;;4592497;19;19931;-25
2023/06/11 07:25:31;;;;;;;;;;;24.40;93.90;;;;;;4592269;19;19915;-26
2023/06/11 07:27:02;;;;;;;;;;;24.50;93.60;;;;;;4592286;19;19974;-28
2023/06/11 07:28:33;;;;;;;;;;;24.40;93.80;;;;;;4590876;19;19914;-26
2023/06/11 07:30:04;;;;;;;;;;;24.40;93.90;;;;;;4594436;19;19915;-25
2023/06/11 07:31:35;;;;;;;;;;;24.40;93.80;;;;;;4593235;19;20377;-27
2023/06/11 07:33:08;;;;;;;;;;;24.50;93.80;;;;;;4594139;19;19919;-27
2023/06/11 07:34:40;;;;;;;;;;;24.50;93.60;;;;;;4593295;19;19945;-25
2023/06/11 07:36:11;;;;;;;;;;;24.60;93.80;;;;;;4592728;19;19915;-29
2023/06/11 07:38:00;;;;;;;;;;;24.60;93.60;;;;;;4592019;19;19927;-28
2023/06/11 07:39:32;;;;;;;;;;;24.60;93.70;;;;;;4592457;19;19915;-27
2023/06/11 07:41:03;;;;;;;;;;;24.70;93.70;;;;;;4592944;19;19939;-27
2023/06/11 07:42:35;;;;;;;;;;;24.70;93.70;;;;;;4592095;19;19925;-26
2023/06/11 07:44:06;;;;;;;;;;;24.70;93.60;;;;;;4592157;19;19945;-25
2023/06/11 07:45:37;;;;;;;;;;;24.70;93.90;;;;;;4592079;19;19923;-31
2023/06/11 07:47:08;;;;;;;;;;;24.70;93.60;;;;;;4594314;19;19932;-26
2023/06/11 07:48:41;;;;;;;;;;;24.70;93.90;;;;;;4594391;19;20331;-25
2023/06/11 07:50:12;;;;;;;;;;;24.70;93.70;;;;;;4593734;19;19919;-25
2023/06/11 07:51:45;;;;;;;;;;;24.70;93.70;;;;;;4593746;19;19974;-28
2023/06/11 07:53:18;;;;;;;;;;;24.60;93.70;;;;;;4592392;19;19919;-25
2023/06/11 07:54:50;;;;;;;;;;;24.60;93.80;;;;;;4592485;19;19958;-25
2023/06/11 07:56:21;;;;;;;;;;;24.60;93.80;;;;;;4592544;19;19974;-30
2023/06/11 07:57:53;;;;;;;;;;;24.60;93.80;;;;;;4593164;19;19918;-26
2023/06/11 07:59:23;;;;;;;;;;;24.60;93.90;;;;;;4591147;19;19987;-26
2023/06/11 08:00:55;;;;;;;;;;;24.50;94.10;;;;;;4593081;19;19915;-25
2023/06/11 08:02:26;;;;;;;;;;;24.50;94.00;;;;;;4593011;19;19910;-25
2023/06/11 08:03:57;;;;;;;;;;;24.50;94.40;;;;;;4592669;19;19919;-25
2023/06/11 08:05:29;;;;;;;;;;;24.50;94.60;;;;;;4593651;19;19907;-26
2023/06/11 08:07:01;;;;;;;;;;;24.40;94.60;;;;;;4592178;19;20534;-24
2023/06/11 08:08:33;;;;;;;;;;;24.40;94.50;;;;;;4592195;19;19998;-26
2023/06/11 08:10:05;;;;;;;;;;;24.40;94.50;;;;;;4591827;19;19934;-25
2023/06/11 08:11:41;;;;;;;;;;;24.50;94.50;;;;;;4591912;19;19940;-28
2023/06/11 08:13:12;;;;;;;;;;;24.50;94.50;;;;;;4590589;19;20339;-27
2023/06/11 08:14:43;;;;;;;;;;;24.50;94.60;;;;;;4591550;19;19922;-29
2023/06/11 08:16:15;;;;;;;;;;;24.50;94.60;;;;;;4590494;19;19941;-27
2023/06/11 08:17:46;;;;;;;;;;;24.50;94.40;;;;;;4588755;19;19926;-26
2023/06/11 08:19:17;;;;;;;;;;;24.50;94.40;;;;;;4592529;19;19974;-28
2023/06/11 08:20:48;;;;;;;;;;;24.50;94.50;;;;;;4593259;19;19951;-25
2023/06/11 08:22:20;;;;;;;;;;;24.50;94.40;;;;;;4591392;19;19928;-27
2023/06/11 08:23:51;;;;;;;;;;;24.40;94.30;;;;;;4592205;19;20249;-28
2023/06/11 08:25:23;;;;;;;;;;;24.40;94.20;;;;;;4592680;19;20276;-29
2023/06/11 08:26:53;;;;;;;;;;;24.40;94.10;;;;;;4592837;19;19947;-26
2023/06/11 08:28:26;;;;;;;;;;;24.40;94.00;;;;;;4591360;19;19938;-29
2023/06/11 08:29:58;;;;;;;;;;;24.30;94.30;;;;;;4591863;19;20001;-29
2023/06/11 08:31:29;;;;;;;;;;;24.30;94.30;;;;;;4592210;19;19915;-25
2023/06/11 08:33:01;;;;;;;;;;;24.30;94.40;;;;;;4591480;19;19944;-25
2023/06/11 08:34:32;;;;;;;;;;;24.30;94.00;;;;;;4590983;19;19923;-27
2023/06/11 08:36:03;;;;;;;;;;;24.30;93.80;;;;;;4592477;19;19919;-28
2023/06/11 08:37:34;;;;;;;;;;;24.20;93.90;;;;;;4591881;19;20272;-25
2023/06/11 08:39:06;;;;;;;;;;;24.20;93.80;;;;;;4591664;19;19990;-25
2023/06/11 08:40:39;;;;;;;;;;;24.20;93.60;;;;;;4591642;19;19919;-27
2023/06/11 08:42:10;;;;;;;;;;;24.20;93.90;;;;;;4590913;19;19910;-27
2023/06/11 08:43:45;;;;;;;;;;;24.20;94.60;;;;;;4590346;19;19953;-27
2023/06/11 08:45:17;;;;;;;;;;;24.20;93.70;;;;;;4589509;19;19910;-25
2023/06/11 08:46:48;;;;;;;;;;;24.20;93.40;;;;;;4590591;19;19915;-29
2023/06/11 08:48:22;;;;;;;;;;;24.20;93.90;;;;;;4590669;19;19915;-28
2023/06/11 08:49:53;;;;;;;;;;;24.10;93.60;;;;;;4590675;19;20010;-25
2023/06/11 08:51:26;;;;;;;;;;;24.10;93.80;;;;;;4591742;19;19915;-26
2023/06/11 08:53:00;;;;;;;;;;;24.20;95.60;;;;;;4592591;19;20372;-25
2023/06/11 08:54:31;;;;;;;;;;;24.20;96.40;;;;;;4592673;19;19911;-26
2023/06/11 08:56:03;;;;;;;;;;;24.20;95.80;;;;;;4591378;19;19941;-25
2023/06/11 08:57:34;;;;;;;;;;;24.30;97.10;;;;;;4591622;19;19933;-25
2023/06/11 08:59:05;;;;;;;;;;;24.30;96.30;;;;;;4590334;19;19919;-24
2023/06/11 09:00:37;;;;;;;;;;;24.30;96.90;;;;;;4590942;19;19922;-25
2023/06/11 09:02:08;;;;;;;;;;;24.30;96.90;;;;;;4592686;19;19915;-25